Erquelinnes, Belgium
Current Conditions -  °F | °C
As of 6:20 AM on Thursday 27 Nov 2014 (Local Time) from EBCI Reporting Station
Haze Haze  
Wind Chill:   Ceiling: 4300
Heat Index:   Visibility: 3mi
Dew Point:   Wind: 6mph
Humidity: 93%   Direction: 160°SSE
Pressure: 29.74"   Gusts: NA
Location:  50.31°N, 4.11°E
Report Text: EBCI 270520Z 16005KT 5000 BR SCT006 BKN043 09/08 Q1007 NOSIG
Loading
Personal Weather Stations






























Interactive Weather Map New forecast layout! Learn more

10-Day Weather Forecast

Advertisements
Track Severe Weather on mobile